Time;durP1;ratioP1;P1;durP2;ratioP2;P2;SDS_P1;SDS_P2;PMS_P1;PMS_P2;Temp;Humidity;BMP_temperature;BMP_pressure;BME280_temperature;BME280_humidity;BME280_pressure;Samples;Min_cycle;Max_cycle;Signal;HPM_P1;HPM_P2
2023/12/09 00:01:26;;;;;;;21.23;19.03;;;;;;;;;;5068307;28;20470;-54
2023/12/09 00:03:53;;;;;;;19.97;17.97;;;;;;;;;;5076294;28;20454;-54
2023/12/09 00:06:20;;;;;;;20.63;17.30;;;;;;;;;;5086490;28;20446;-55
2023/12/09 00:08:48;;;;;;;15.90;14.27;;;;;;;;;;5083479;28;20528;-54
2023/12/09 00:11:15;;;;;;;15.90;14.30;;;;;;;;;;5082625;28;20478;-55
2023/12/09 00:13:44;;;;;;;15.80;14.13;;;;;;;;;;5082012;28;20443;-55
2023/12/09 00:16:11;;;;;;;17.67;14.60;;;;;;;;;;5081968;28;20446;-54
2023/12/09 00:18:38;;;;;;;20.10;15.70;;;;;;;;;;5082833;28;20489;-54
2023/12/09 00:21:06;;;;;;;18.40;16.30;;;;;;;;;;5076254;28;20473;-55
2023/12/09 00:23:33;;;;;;;18.53;16.60;;;;;;;;;;5083722;28;20504;-54
2023/12/09 00:26:01;;;;;;;18.23;16.33;;;;;;;;;;5082585;28;20479;-54
2023/12/09 00:28:28;;;;;;;17.90;15.97;;;;;;;;;;5075932;28;20445;-55
2023/12/09 00:30:57;;;;;;;17.87;15.20;;;;;;;;;;5076066;28;20503;-54
2023/12/09 00:33:24;;;;;;;17.20;15.37;;;;;;;;;;5077920;28;20442;-54
2023/12/09 00:35:51;;;;;;;18.90;15.90;;;;;;;;;;5084126;28;20435;-54
2023/12/09 00:38:19;;;;;;;21.43;19.13;;;;;;;;;;5080043;28;20533;-55
2023/12/09 00:40:46;;;;;;;17.17;15.50;;;;;;;;;;5080765;28;20450;-55
2023/12/09 00:43:13;;;;;;;20.87;18.50;;;;;;;;;;5080787;28;20512;-54
2023/12/09 00:45:40;;;;;;;27.13;20.07;;;;;;;;;;5081164;28;20521;-54
2023/12/09 00:48:09;;;;;;;19.90;17.73;;;;;;;;;;5083279;28;20446;-54
2023/12/09 00:50:36;;;;;;;19.70;17.70;;;;;;;;;;5070430;28;20517;-54
2023/12/09 00:53:04;;;;;;;21.17;18.90;;;;;;;;;;5069632;28;20481;-54
2023/12/09 00:55:31;;;;;;;22.70;20.33;;;;;;;;;;5067403;28;20446;-54
2023/12/09 00:57:59;;;;;;;22.10;19.43;;;;;;;;;;5065745;28;20483;-55
2023/12/09 01:00:26;;;;;;;20.13;17.80;;;;;;;;;;5056228;28;20970;-54
2023/12/09 01:02:53;;;;;;;18.83;16.90;;;;;;;;;;5065873;28;21012;-54
2023/12/09 01:05:22;;;;;;;16.70;14.90;;;;;;;;;;5070588;28;20472;-54
2023/12/09 01:07:49;;;;;;;17.90;16.20;;;;;;;;;;5071610;28;20439;-55
2023/12/09 01:10:17;;;;;;;21.80;19.50;;;;;;;;;;5061775;28;20459;-54
2023/12/09 01:12:44;;;;;;;20.67;18.60;;;;;;;;;;5071968;28;20502;-55
2023/12/09 01:15:12;;;;;;;23.33;20.90;;;;;;;;;;5069691;28;20453;-54
2023/12/09 01:17:40;;;;;;;24.33;21.77;;;;;;;;;;5069487;28;20570;-54
2023/12/09 01:20:08;;;;;;;23.63;21.23;;;;;;;;;;5069612;28;20578;-54
2023/12/09 01:22:37;;;;;;;25.97;23.27;;;;;;;;;;5072127;28;20580;-54
2023/12/09 01:25:05;;;;;;;26.27;23.47;;;;;;;;;;5063705;28;20454;-54
2023/12/09 01:27:32;;;;;;;26.00;22.00;;;;;;;;;;5063684;28;20534;-54
2023/12/09 01:29:59;;;;;;;22.17;19.70;;;;;;;;;;5070458;28;20447;-54
2023/12/09 01:32:26;;;;;;;21.30;19.10;;;;;;;;;;5063603;28;20469;-55
2023/12/09 01:34:55;;;;;;;22.53;18.80;;;;;;;;;;5063967;28;20662;-54
2023/12/09 01:37:23;;;;;;;20.00;17.90;;;;;;;;;;5064233;28;20452;-54
2023/12/09 01:39:51;;;;;;;20.07;18.03;;;;;;;;;;5068663;28;20765;-55
2023/12/09 01:42:19;;;;;;;19.43;16.73;;;;;;;;;;5061054;28;20477;-54
2023/12/09 01:44:46;;;;;;;19.97;17.30;;;;;;;;;;5071685;28;20478;-54
2023/12/09 01:47:14;;;;;;;20.07;18.00;;;;;;;;;;5064898;28;21009;-54
2023/12/09 01:49:42;;;;;;;19.67;17.47;;;;;;;;;;5068947;28;20456;-54
2023/12/09 01:52:10;;;;;;;23.53;21.23;;;;;;;;;;5101127;22;20500;-52
2023/12/09 01:54:37;;;;;;;27.67;24.73;;;;;;;;;;5021824;28;20441;-54
2023/12/09 01:57:06;;;;;;;26.87;24.03;;;;;;;;;;5022903;28;20447;-57
2023/12/09 01:59:34;;;;;;;26.57;23.87;;;;;;;;;;5023942;28;20488;-54
2023/12/09 02:02:01;;;;;;;27.30;23.73;;;;;;;;;;5023386;28;20790;-53
2023/12/09 02:04:29;;;;;;;28.40;24.93;;;;;;;;;;5021438;28;20463;-54
2023/12/09 02:06:56;;;;;;;26.70;23.87;;;;;;;;;;5021566;28;20459;-54
2023/12/09 02:09:24;;;;;;;29.77;23.80;;;;;;;;;;5031890;28;20693;-53
2023/12/09 02:11:54;;;;;;;18.50;16.50;;;;;;;;;;5030833;28;20464;-53
2023/12/09 02:14:26;;;;;;;18.30;16.17;;;;;;;;;;5023694;28;20454;-54
2023/12/09 02:16:55;;;;;;;17.70;15.80;;;;;;;;;;5024046;28;20536;-53
2023/12/09 02:19:23;;;;;;;19.20;17.30;;;;;;;;;;5021254;28;20509;-52
2023/12/09 02:22:00;;;;;;;17.53;15.40;;;;;;;;;;5024070;28;20899;-55
2023/12/09 02:24:30;;;;;;;19.73;15.83;;;;;;;;;;5020757;28;20537;-53
2023/12/09 02:26:59;;;;;;;19.13;15.00;;;;;;;;;;5027964;28;20936;-52
2023/12/09 02:29:27;;;;;;;13.00;11.10;;;;;;;;;;5023693;28;20527;-52
2023/12/09 02:32:01;;;;;;;12.40;9.20;;;;;;;;;;5023751;28;20533;-54
2023/12/09 02:34:29;;;;;;;11.60;9.20;;;;;;;;;;5013661;28;20480;-55
2023/12/09 02:36:58;;;;;;;16.70;14.53;;;;;;;;;;5020759;28;20451;-55
2023/12/09 02:39:25;;;;;;;23.50;21.30;;;;;;;;;;5024450;28;20485;-55
2023/12/09 02:41:54;;;;;;;27.67;24.43;;;;;;;;;;5030929;28;20844;-53
2023/12/09 02:44:22;;;;;;;26.03;22.80;;;;;;;;;;5027277;28;20941;-55
2023/12/09 02:46:55;;;;;;;24.67;22.07;;;;;;;;;;5025244;28;20449;-53
2023/12/09 02:49:22;;;;;;;28.00;22.50;;;;;;;;;;5028148;28;20813;-53
2023/12/09 02:51:50;;;;;;;23.80;20.77;;;;;;;;;;5023045;28;20568;-54
2023/12/09 02:54:18;;;;;;;23.00;20.60;;;;;;;;;;5028206;28;20460;-53
2023/12/09 02:56:45;;;;;;;17.57;14.30;;;;;;;;;;5027933;28;20853;-52
2023/12/09 02:59:14;;;;;;;14.37;11.87;;;;;;;;;;5020593;28;21062;-53
2023/12/09 03:01:41;;;;;;;16.23;12.00;;;;;;;;;;5022511;28;20474;-54
2023/12/09 03:04:09;;;;;;;12.80;10.70;;;;;;;;;;5029342;28;20455;-56
2023/12/09 03:06:36;;;;;;;12.00;10.13;;;;;;;;;;5009509;28;20459;-53
2023/12/09 03:09:04;;;;;;;18.70;16.90;;;;;;;;;;5016272;28;20952;-53
2023/12/09 03:11:31;;;;;;;21.53;19.20;;;;;;;;;;5030009;28;20490;-54
2023/12/09 03:13:58;;;;;;;23.40;21.10;;;;;;;;;;5029643;28;20450;-56
2023/12/09 03:16:27;;;;;;;27.80;23.50;;;;;;;;;;5020577;28;20508;-55
2023/12/09 03:18:54;;;;;;;24.77;22.07;;;;;;;;;;5026409;28;21050;-54
2023/12/09 03:21:22;;;;;;;29.53;23.70;;;;;;;;;;5016889;28;20470;-52
2023/12/09 03:23:49;;;;;;;23.60;21.20;;;;;;;;;;5028219;28;20467;-53
2023/12/09 03:26:17;;;;;;;24.27;21.00;;;;;;;;;;5021389;28;20450;-53
2023/12/09 03:28:44;;;;;;;22.27;19.60;;;;;;;;;;5023968;28;20538;-54
2023/12/09 03:31:14;;;;;;;22.37;19.53;;;;;;;;;;5026162;28;20447;-53
2023/12/09 03:33:43;;;;;;;25.40;19.10;;;;;;;;;;5024809;28;20479;-54
2023/12/09 03:36:13;;;;;;;23.27;19.13;;;;;;;;;;5022764;28;20443;-54
2023/12/09 03:38:40;;;;;;;25.90;19.47;;;;;;;;;;5023018;28;20476;-54
2023/12/09 03:41:08;;;;;;;22.17;19.43;;;;;;;;;;5022509;28;20446;-56
2023/12/09 03:43:36;;;;;;;22.70;20.30;;;;;;;;;;5018114;28;20518;-54
2023/12/09 03:46:03;;;;;;;23.87;21.37;;;;;;;;;;5023697;28;20458;-55
2023/12/09 03:48:30;;;;;;;21.33;18.33;;;;;;;;;;5026144;28;20455;-55
2023/12/09 03:50:59;;;;;;;21.67;19.57;;;;;;;;;;5018259;28;20443;-53
2023/12/09 03:53:27;;;;;;;23.63;18.63;;;;;;;;;;5028713;28;20459;-54
2023/12/09 03:55:55;;;;;;;21.23;18.93;;;;;;;;;;5027777;28;20530;-54
2023/12/09 03:58:22;;;;;;;21.13;19.00;;;;;;;;;;5027175;28;20463;-53
2023/12/09 04:00:49;;;;;;;22.20;19.87;;;;;;;;;;5020632;28;20829;-54
2023/12/09 04:03:17;;;;;;;21.17;17.70;;;;;;;;;;5016818;28;20579;-55
2023/12/09 04:05:44;;;;;;;22.70;17.37;;;;;;;;;;5022020;28;20452;-53
2023/12/09 04:08:13;;;;;;;19.70;17.63;;;;;;;;;;5020126;28;20455;-55
2023/12/09 04:10:40;;;;;;;19.13;17.13;;;;;;;;;;5018699;28;20517;-52
2023/12/09 04:13:07;;;;;;;20.77;17.00;;;;;;;;;;5027292;28;20540;-54
2023/12/09 04:15:35;;;;;;;21.37;19.13;;;;;;;;;;5024608;28;20446;-53
2023/12/09 04:18:02;;;;;;;21.50;18.20;;;;;;;;;;5024446;28;20577;-52
2023/12/09 04:20:29;;;;;;;19.20;16.50;;;;;;;;;;5019253;28;20529;-56
2023/12/09 04:22:57;;;;;;;18.47;15.90;;;;;;;;;;5026418;28;20484;-57
2023/12/09 04:25:26;;;;;;;22.60;17.50;;;;;;;;;;5025968;28;20458;-52
2023/12/09 04:27:54;;;;;;;21.67;15.57;;;;;;;;;;5027686;28;20863;-54
2023/12/09 04:30:22;;;;;;;19.57;16.17;;;;;;;;;;5033240;28;20859;-54
2023/12/09 04:32:50;;;;;;;17.50;15.60;;;;;;;;;;5021469;28;21028;-53
2023/12/09 04:35:17;;;;;;;17.90;16.10;;;;;;;;;;5025705;28;20451;-53
2023/12/09 04:37:44;;;;;;;18.40;15.30;;;;;;;;;;5025656;28;20458;-55
2023/12/09 04:40:12;;;;;;;27.47;22.67;;;;;;;;;;5024303;28;20488;-53
2023/12/09 04:42:41;;;;;;;24.77;22.03;;;;;;;;;;5027723;28;20469;-54
2023/12/09 04:45:09;;;;;;;27.17;24.30;;;;;;;;;;5030131;28;20456;-54
2023/12/09 04:47:38;;;;;;;28.77;25.40;;;;;;;;;;5030422;28;20454;-55
2023/12/09 04:50:08;;;;;;;28.07;25.20;;;;;;;;;;5030276;28;20475;-53
2023/12/09 04:52:35;;;;;;;29.97;26.63;;;;;;;;;;5026013;28;20478;-55
2023/12/09 04:55:03;;;;;;;22.70;20.40;;;;;;;;;;5027006;28;20538;-54
2023/12/09 04:57:30;;;;;;;13.93;11.57;;;;;;;;;;5020281;28;20450;-53
2023/12/09 05:00:01;;;;;;;16.07;13.17;;;;;;;;;;5023021;28;20477;-55
2023/12/09 05:02:28;;;;;;;21.50;19.23;;;;;;;;;;5026943;28;20995;-53
2023/12/09 05:04:56;;;;;;;22.50;20.10;;;;;;;;;;5032928;28;20891;-54
2023/12/09 05:07:25;;;;;;;24.77;22.07;;;;;;;;;;5022110;28;20444;-53
2023/12/09 05:09:53;;;;;;;22.53;19.40;;;;;;;;;;5016092;28;20441;-53
2023/12/09 05:12:20;;;;;;;17.30;15.43;;;;;;;;;;5026510;28;20467;-55
2023/12/09 05:14:47;;;;;;;17.00;15.23;;;;;;;;;;5032748;28;20456;-53
2023/12/09 05:17:16;;;;;;;19.50;16.00;;;;;;;;;;5027968;28;20478;-55
2023/12/09 05:19:44;;;;;;;20.63;17.20;;;;;;;;;;5032393;28;20539;-54
2023/12/09 05:22:11;;;;;;;24.13;20.33;;;;;;;;;;5022548;28;20475;-54
2023/12/09 05:24:38;;;;;;;25.53;22.80;;;;;;;;;;5025323;28;21023;-55
2023/12/09 05:27:06;;;;;;;23.27;20.80;;;;;;;;;;5030359;28;20882;-53
2023/12/09 05:29:33;;;;;;;20.57;18.40;;;;;;;;;;5024806;28;20450;-53
2023/12/09 05:32:01;;;;;;;19.53;17.20;;;;;;;;;;5031901;28;20471;-55
2023/12/09 05:34:30;;;;;;;19.60;17.60;;;;;;;;;;5022566;28;20517;-54
2023/12/09 05:36:57;;;;;;;18.97;17.07;;;;;;;;;;5021364;28;20459;-54
2023/12/09 05:39:25;;;;;;;19.17;15.30;;;;;;;;;;5026708;28;20479;-53
2023/12/09 05:41:52;;;;;;;17.03;14.13;;;;;;;;;;5019988;28;20467;-55
2023/12/09 05:44:19;;;;;;;13.33;11.93;;;;;;;;;;5027268;28;20498;-54
2023/12/09 05:46:47;;;;;;;8.00;7.20;;;;;;;;;;5032037;28;20458;-53
2023/12/09 05:49:14;;;;;;;6.77;5.23;;;;;;;;;;5026867;28;20452;-54
2023/12/09 05:51:44;;;;;;;7.10;6.40;;;;;;;;;;5020766;28;20481;-54
2023/12/09 05:54:11;;;;;;;8.60;6.07;;;;;;;;;;5028101;28;20459;-54
2023/12/09 05:56:38;;;;;;;10.80;8.27;;;;;;;;;;5024251;28;20587;-55
2023/12/09 05:59:06;;;;;;;11.60;10.03;;;;;;;;;;5029775;28;20451;-54
2023/12/09 06:01:33;;;;;;;16.07;12.80;;;;;;;;;;5022460;28;20473;-53
2023/12/09 06:04:01;;;;;;;16.70;15.10;;;;;;;;;;5021807;28;20534;-55
2023/12/09 06:06:28;;;;;;;18.63;14.83;;;;;;;;;;5028077;28;20503;-54
2023/12/09 06:08:57;;;;;;;18.10;15.30;;;;;;;;;;5021583;28;20509;-55
2023/12/09 06:11:24;;;;;;;16.67;14.90;;;;;;;;;;5027451;28;20474;-54
2023/12/09 06:13:51;;;;;;;18.57;14.30;;;;;;;;;;5019081;28;20459;-54
2023/12/09 06:16:19;;;;;;;17.97;15.53;;;;;;;;;;5031229;28;20633;-53
2023/12/09 06:18:47;;;;;;;20.53;15.20;;;;;;;;;;5030082;28;20454;-53
2023/12/09 06:21:20;;;;;;;14.43;12.07;;;;;;;;;;5022476;28;20536;-54
2023/12/09 06:23:47;;;;;;;14.57;12.50;;;;;;;;;;5024811;28;20455;-53
2023/12/09 06:26:16;;;;;;;14.53;13.07;;;;;;;;;;5019153;28;20448;-53
2023/12/09 06:28:43;;;;;;;15.77;14.17;;;;;;;;;;5020029;28;21015;-55
2023/12/09 06:31:11;;;;;;;20.43;15.23;;;;;;;;;;5029791;28;20534;-53
2023/12/09 06:33:39;;;;;;;21.97;18.10;;;;;;;;;;5017693;28;20531;-55
2023/12/09 06:36:07;;;;;;;22.20;18.83;;;;;;;;;;5013842;28;20949;-53
2023/12/09 06:38:34;;;;;;;26.83;21.30;;;;;;;;;;5012573;28;20494;-53
2023/12/09 06:41:01;;;;;;;22.10;19.50;;;;;;;;;;5019793;28;20475;-53
2023/12/09 06:43:30;;;;;;;27.50;20.40;;;;;;;;;;5011262;28;20454;-52
2023/12/09 06:45:58;;;;;;;19.90;15.73;;;;;;;;;;5013847;28;20530;-54
2023/12/09 06:48:25;;;;;;;19.03;15.50;;;;;;;;;;5028070;28;20446;-53
2023/12/09 06:50:52;;;;;;;20.17;14.43;;;;;;;;;;5014608;28;20440;-55
2023/12/09 06:53:19;;;;;;;24.33;17.37;;;;;;;;;;5019021;28;20478;-53
2023/12/09 06:55:47;;;;;;;20.87;17.23;;;;;;;;;;5011969;28;20541;-56
2023/12/09 06:58:15;;;;;;;19.00;16.97;;;;;;;;;;5012108;28;20558;-53
2023/12/09 07:00:46;;;;;;;18.43;13.93;;;;;;;;;;5012848;28;20440;-53
2023/12/09 07:03:13;;;;;;;17.23;15.33;;;;;;;;;;5012826;28;20498;-55
2023/12/09 07:05:40;;;;;;;21.03;15.10;;;;;;;;;;5013153;28;20786;-56
2023/12/09 07:08:10;;;;;;;18.20;13.87;;;;;;;;;;5013889;28;20451;-54
2023/12/09 07:10:37;;;;;;;26.90;17.20;;;;;;;;;;5012461;28;20949;-53
2023/12/09 07:13:05;;;;;;;24.80;15.57;;;;;;;;;;5013836;28;20476;-53
2023/12/09 07:15:32;;;;;;;47.27;33.60;;;;;;;;;;5012971;28;20987;-53
2023/12/09 07:18:01;;;;;;;50.50;42.43;;;;;;;;;;5013137;28;20444;-54
2023/12/09 07:20:28;;;;;;;21.03;16.80;;;;;;;;;;5012842;28;20443;-53
2023/12/09 07:22:56;;;;;;;18.80;16.23;;;;;;;;;;5011955;28;20554;-52
2023/12/09 07:25:24;;;;;;;26.30;18.90;;;;;;;;;;5011852;28;20442;-54
2023/12/09 07:27:51;;;;;;;32.03;24.30;;;;;;;;;;5010265;28;20526;-55
2023/12/09 07:30:20;;;;;;;53.87;33.13;;;;;;;;;;5013527;28;20606;-55
2023/12/09 07:32:48;;;;;;;83.00;36.70;;;;;;;;;;5012098;28;20459;-53
2023/12/09 07:35:18;;;;;;;161.77;38.70;;;;;;;;;;5014152;28;20536;-56
2023/12/09 07:37:45;;;;;;;148.70;40.73;;;;;;;;;;5011198;28;20542;-54
2023/12/09 07:40:13;;;;;;;46.60;27.90;;;;;;;;;;5011450;28;20810;-56
2023/12/09 07:42:40;;;;;;;91.57;34.67;;;;;;;;;;5012358;28;21003;-56
2023/12/09 07:45:08;;;;;;;26.90;18.90;;;;;;;;;;5014493;28;20435;-54
2023/12/09 07:47:36;;;;;;;19.80;17.70;;;;;;;;;;5010384;28;20493;-54
2023/12/09 07:50:03;;;;;;;23.17;18.47;;;;;;;;;;5011771;28;20475;-53
2023/12/09 07:52:32;;;;;;;30.87;21.83;;;;;;;;;;5054085;22;20526;-55
2023/12/09 07:54:59;;;;;;;24.20;17.37;;;;;;;;;;5078143;28;20462;-54
2023/12/09 07:57:27;;;;;;;25.70;19.00;;;;;;;;;;5079085;28;20601;-54
2023/12/09 07:59:54;;;;;;;25.30;19.03;;;;;;;;;;5077885;28;20447;-54
2023/12/09 08:02:21;;;;;;;24.77;19.30;;;;;;;;;;5079733;28;20475;-55
2023/12/09 08:07:23;;;;;;;33.33;25.70;;;;;;;;;;5098742;27;20949;-55
2023/12/09 08:09:50;;;;;;;36.90;28.23;;;;;;;;;;5093590;28;20505;-54
2023/12/09 08:12:17;;;;;;;42.33;33.23;;;;;;;;;;5089815;28;20462;-54
2023/12/09 08:14:45;;;;;;;49.73;35.70;;;;;;;;;;5075554;28;20803;-54
2023/12/09 08:17:12;;;;;;;42.30;31.30;;;;;;;;;;5077910;28;20874;-55
2023/12/09 08:19:39;;;;;;;42.97;32.40;;;;;;;;;;5076631;28;20833;-54
2023/12/09 08:22:06;;;;;;;37.67;29.77;;;;;;;;;;5075361;28;20865;-55
2023/12/09 08:27:09;;;;;;;37.57;28.80;;;;;;;;;;5084863;27;20668;-55
2023/12/09 08:29:36;;;;;;;35.23;27.80;;;;;;;;;;5063842;28;20440;-55
2023/12/09 08:32:03;;;;;;;33.43;26.97;;;;;;;;;;5067658;28;20894;-55
2023/12/09 08:34:31;;;;;;;35.53;29.03;;;;;;;;;;5056207;28;20459;-55
2023/12/09 08:36:58;;;;;;;33.90;29.37;;;;;;;;;;5046970;28;20824;-54
2023/12/09 08:39:25;;;;;;;33.03;27.30;;;;;;;;;;5049636;28;20441;-55
2023/12/09 08:41:53;;;;;;;34.00;27.97;;;;;;;;;;5054801;28;20566;-55
2023/12/09 08:44:21;;;;;;;37.57;29.90;;;;;;;;;;5049010;28;20486;-54
2023/12/09 08:46:51;;;;;;;34.70;26.97;;;;;;;;;;5056274;28;20502;-54
2023/12/09 08:49:18;;;;;;;32.23;25.30;;;;;;;;;;5057488;28;20449;-54
2023/12/09 08:51:46;;;;;;;26.00;23.20;;;;;;;;;;5066380;28;20448;-56
2023/12/09 08:54:13;;;;;;;29.57;24.40;;;;;;;;;;5066024;28;20495;-54
2023/12/09 08:56:40;;;;;;;27.00;24.10;;;;;;;;;;5066416;28;20439;-54
2023/12/09 08:59:10;;;;;;;28.97;24.27;;;;;;;;;;5065606;28;20951;-55
2023/12/09 09:01:38;;;;;;;36.53;30.83;;;;;;;;;;5066388;28;20494;-54
2023/12/09 09:04:06;;;;;;;32.60;27.37;;;;;;;;;;5065847;28;20806;-54
2023/12/09 09:06:33;;;;;;;31.60;26.10;;;;;;;;;;5064887;28;20470;-55
2023/12/09 09:09:00;;;;;;;30.30;25.70;;;;;;;;;;5064415;28;20445;-55
2023/12/09 09:11:28;;;;;;;39.93;27.57;;;;;;;;;;5064342;28;20771;-54
2023/12/09 09:13:55;;;;;;;121.00;81.70;;;;;;;;;;5065070;28;20495;-56
2023/12/09 09:16:23;;;;;;;37.53;32.03;;;;;;;;;;5064581;28;20429;-54
2023/12/09 09:18:51;;;;;;;27.30;23.50;;;;;;;;;;5064648;28;20439;-55
2023/12/09 09:21:19;;;;;;;25.80;19.20;;;;;;;;;;5065636;28;20440;-54
2023/12/09 09:23:46;;;;;;;28.17;20.87;;;;;;;;;;5066001;28;20472;-55
2023/12/09 09:26:13;;;;;;;34.50;27.50;;;;;;;;;;5065415;28;20546;-56
2023/12/09 09:28:40;;;;;;;35.13;29.77;;;;;;;;;;5064131;28;20458;-55
2023/12/09 09:31:08;;;;;;;33.83;30.27;;;;;;;;;;5050060;28;20547;-54
2023/12/09 09:33:35;;;;;;;32.63;28.60;;;;;;;;;;5045742;28;20470;-55
2023/12/09 09:36:04;;;;;;;33.37;28.20;;;;;;;;;;5053511;28;20444;-55
2023/12/09 09:38:31;;;;;;;34.10;28.47;;;;;;;;;;5051801;28;20530;-55
2023/12/09 09:40:59;;;;;;;30.77;26.43;;;;;;;;;;5047306;28;20448;-54
2023/12/09 09:43:30;;;;;;;32.87;25.87;;;;;;;;;;5039996;28;21130;-54
2023/12/09 09:45:58;;;;;;;28.83;24.23;;;;;;;;;;5035919;28;20488;-57
2023/12/09 09:48:26;;;;;;;25.27;22.47;;;;;;;;;;5038149;28;20542;-55
2023/12/09 09:50:53;;;;;;;27.43;21.90;;;;;;;;;;5039647;28;20439;-55
2023/12/09 09:53:31;;;;;;;25.07;22.47;;;;;;;;;;5038828;28;21026;-54
2023/12/09 09:55:59;;;;;;;28.60;24.10;;;;;;;;;;5038809;28;20442;-54
2023/12/09 09:58:26;;;;;;;27.13;23.30;;;;;;;;;;5037798;28;20447;-55
2023/12/09 10:00:55;;;;;;;29.13;21.87;;;;;;;;;;5039611;28;20437;-55
2023/12/09 10:03:23;;;;;;;38.07;22.70;;;;;;;;;;5035698;28;20469;-56
2023/12/09 10:05:51;;;;;;;27.13;23.03;;;;;;;;;;5037044;28;20474;-54
2023/12/09 10:08:18;;;;;;;30.10;24.93;;;;;;;;;;5033717;28;20545;-54
2023/12/09 10:10:47;;;;;;;31.77;26.83;;;;;;;;;;5036728;28;20439;-55
2023/12/09 10:13:14;;;;;;;28.93;23.90;;;;;;;;;;5034566;28;20482;-57
2023/12/09 10:15:42;;;;;;;28.90;23.83;;;;;;;;;;5036877;28;20431;-55
2023/12/09 10:18:13;;;;;;;27.90;23.70;;;;;;;;;;5038890;28;20998;-55
2023/12/09 10:20:41;;;;;;;28.70;22.47;;;;;;;;;;5048049;28;20541;-55
2023/12/09 10:23:08;;;;;;;27.33;23.57;;;;;;;;;;5036828;28;20549;-56
2023/12/09 10:25:36;;;;;;;28.40;24.80;;;;;;;;;;5038692;28;21033;-55
2023/12/09 10:28:08;;;;;;;25.43;22.80;;;;;;;;;;5040569;28;20451;-55
2023/12/09 10:30:36;;;;;;;23.63;21.10;;;;;;;;;;5037149;28;20446;-55
2023/12/09 10:33:03;;;;;;;23.87;20.40;;;;;;;;;;5039612;28;20452;-55
2023/12/09 10:35:31;;;;;;;36.23;24.10;;;;;;;;;;5036269;28;20437;-55
2023/12/09 10:38:02;;;;;;;27.40;22.63;;;;;;;;;;5031047;28;20526;-55
2023/12/09 10:40:29;;;;;;;26.67;23.73;;;;;;;;;;5033599;28;20928;-55
2023/12/09 10:42:58;;;;;;;28.63;25.47;;;;;;;;;;5039310;28;20878;-55
2023/12/09 10:45:26;;;;;;;29.70;25.57;;;;;;;;;;5038440;28;20532;-55
2023/12/09 10:47:54;;;;;;;34.30;28.13;;;;;;;;;;5040022;28;20443;-55
2023/12/09 10:50:22;;;;;;;28.60;25.30;;;;;;;;;;5034444;28;20526;-55
2023/12/09 10:52:49;;;;;;;26.83;24.13;;;;;;;;;;5035861;28;20464;-55
2023/12/09 10:55:17;;;;;;;27.70;24.77;;;;;;;;;;5035959;28;20509;-54
2023/12/09 10:57:44;;;;;;;32.50;28.17;;;;;;;;;;5045030;28;20454;-56
2023/12/09 11:00:15;;;;;;;43.07;30.03;;;;;;;;;;5048340;28;20491;-55
2023/12/09 11:02:44;;;;;;;34.47;30.17;;;;;;;;;;5049887;28;20463;-54
2023/12/09 11:05:11;;;;;;;33.90;27.27;;;;;;;;;;5038335;28;20483;-54
2023/12/09 11:07:40;;;;;;;31.80;26.40;;;;;;;;;;5038688;28;20956;-55
2023/12/09 11:10:08;;;;;;;31.53;27.40;;;;;;;;;;5031952;28;20455;-55
2023/12/09 11:12:37;;;;;;;27.63;24.50;;;;;;;;;;5033312;28;20975;-55
2023/12/09 11:15:08;;;;;;;27.97;24.53;;;;;;;;;;5036711;28;20453;-55
2023/12/09 11:17:36;;;;;;;29.20;25.43;;;;;;;;;;5038595;28;20594;-55
2023/12/09 11:20:10;;;;;;;26.27;23.13;;;;;;;;;;5037089;28;20931;-55
2023/12/09 11:22:38;;;;;;;23.37;20.87;;;;;;;;;;5035930;28;21034;-55
2023/12/09 11:25:06;;;;;;;24.37;21.90;;;;;;;;;;5033384;28;20455;-56
2023/12/09 11:27:35;;;;;;;23.27;20.77;;;;;;;;;;5036530;28;20488;-55
2023/12/09 11:30:02;;;;;;;45.00;24.07;;;;;;;;;;5037861;28;21035;-55
2023/12/09 11:32:30;;;;;;;24.63;19.40;;;;;;;;;;5036945;28;20461;-55
2023/12/09 11:34:58;;;;;;;47.73;27.17;;;;;;;;;;5038418;28;20443;-56
2023/12/09 11:37:28;;;;;;;33.13;23.20;;;;;;;;;;5034523;28;20776;-55
2023/12/09 11:39:56;;;;;;;23.67;19.67;;;;;;;;;;5026711;28;20526;-56
2023/12/09 11:42:24;;;;;;;22.63;20.33;;;;;;;;;;5032477;28;20972;-55
2023/12/09 11:44:52;;;;;;;23.20;20.00;;;;;;;;;;5029432;28;20448;-56
2023/12/09 11:47:20;;;;;;;25.13;19.23;;;;;;;;;;5026954;28;20529;-54
2023/12/09 11:49:48;;;;;;;19.93;16.60;;;;;;;;;;5026554;28;20993;-56
2023/12/09 11:52:15;;;;;;;21.30;16.80;;;;;;;;;;5026577;28;20463;-55
2023/12/09 11:54:44;;;;;;;22.30;19.90;;;;;;;;;;5026853;28;20446;-55
2023/12/09 11:57:11;;;;;;;22.43;20.13;;;;;;;;;;5026806;28;20518;-56
2023/12/09 11:59:39;;;;;;;21.33;18.87;;;;;;;;;;5034876;28;20442;-55
2023/12/09 12:02:07;;;;;;;19.60;17.60;;;;;;;;;;5037336;28;20467;-55
2023/12/09 12:04:35;;;;;;;18.83;16.87;;;;;;;;;;5033879;28;20469;-55
2023/12/09 12:07:02;;;;;;;25.77;21.87;;;;;;;;;;5034999;28;20491;-56
2023/12/09 12:09:30;;;;;;;24.67;22.00;;;;;;;;;;5028306;28;20510;-55
2023/12/09 12:11:58;;;;;;;27.07;21.97;;;;;;;;;;5029786;28;20851;-55
2023/12/09 12:14:27;;;;;;;23.77;20.20;;;;;;;;;;5026290;28;20451;-56
2023/12/09 12:16:54;;;;;;;24.30;21.17;;;;;;;;;;5029026;28;20639;-55
2023/12/09 12:19:22;;;;;;;23.10;19.67;;;;;;;;;;5025788;28;20461;-56
2023/12/09 12:21:53;;;;;;;23.47;19.43;;;;;;;;;;5032504;28;20474;-56
2023/12/09 12:24:21;;;;;;;20.93;18.83;;;;;;;;;;5025454;28;20995;-55
2023/12/09 12:26:48;;;;;;;24.90;20.70;;;;;;;;;;5027856;28;20487;-55
2023/12/09 12:29:20;;;;;;;23.50;20.77;;;;;;;;;;5025282;28;20849;-55
2023/12/09 12:31:49;;;;;;;23.37;19.47;;;;;;;;;;5025676;28;20461;-56
2023/12/09 12:34:18;;;;;;;22.13;19.13;;;;;;;;;;5026029;28;20467;-56
2023/12/09 12:36:45;;;;;;;23.07;18.57;;;;;;;;;;5026081;28;20447;-56
2023/12/09 12:39:13;;;;;;;19.27;15.93;;;;;;;;;;5026236;28;20442;-55
2023/12/09 12:41:40;;;;;;;19.07;16.83;;;;;;;;;;5027225;28;20443;-56
2023/12/09 12:44:08;;;;;;;22.90;19.60;;;;;;;;;;5036561;28;20453;-56
2023/12/09 12:46:36;;;;;;;21.87;19.00;;;;;;;;;;5025958;28;20485;-55
2023/12/09 12:49:05;;;;;;;23.40;20.43;;;;;;;;;;5027903;28;20759;-56
2023/12/09 12:51:32;;;;;;;22.27;19.97;;;;;;;;;;5026302;28;20452;-56
2023/12/09 12:54:00;;;;;;;21.43;19.20;;;;;;;;;;5029382;28;20474;-56
2023/12/09 12:56:28;;;;;;;25.17;22.57;;;;;;;;;;5026368;28;20453;-55
2023/12/09 12:58:55;;;;;;;26.20;21.67;;;;;;;;;;5025719;28;20479;-56
2023/12/09 13:01:22;;;;;;;24.90;22.20;;;;;;;;;;5028907;28;20444;-55
2023/12/09 13:03:51;;;;;;;25.10;21.03;;;;;;;;;;5026179;28;20459;-56
2023/12/09 13:06:19;;;;;;;22.57;20.17;;;;;;;;;;5026261;28;20445;-56
2023/12/09 13:08:46;;;;;;;28.53;23.63;;;;;;;;;;5037198;28;20480;-56
2023/12/09 13:11:13;;;;;;;24.13;21.40;;;;;;;;;;5030021;28;20822;-56
2023/12/09 13:13:41;;;;;;;26.57;22.07;;;;;;;;;;5032195;28;20809;-57
2023/12/09 13:16:09;;;;;;;23.53;20.77;;;;;;;;;;5031531;28;20993;-55
2023/12/09 13:18:36;;;;;;;23.60;20.07;;;;;;;;;;5036896;28;20451;-56
2023/12/09 13:21:06;;;;;;;20.17;18.03;;;;;;;;;;5041525;28;20974;-56
2023/12/09 13:23:33;;;;;;;21.40;18.77;;;;;;;;;;5037510;28;20464;-55
2023/12/09 13:26:01;;;;;;;21.13;18.87;;;;;;;;;;5032383;28;20819;-56
2023/12/09 13:28:28;;;;;;;21.97;17.93;;;;;;;;;;5029350;28;20516;-55
2023/12/09 13:30:56;;;;;;;18.30;16.40;;;;;;;;;;5029518;28;21013;-56
2023/12/09 13:33:23;;;;;;;17.97;16.10;;;;;;;;;;5036352;28;20844;-55
2023/12/09 13:35:50;;;;;;;17.43;15.67;;;;;;;;;;5040272;28;20804;-56
2023/12/09 13:38:19;;;;;;;18.37;15.80;;;;;;;;;;5037974;28;20454;-56
2023/12/09 13:40:47;;;;;;;16.90;14.50;;;;;;;;;;5033500;28;20441;-55
2023/12/09 13:43:14;;;;;;;23.17;19.10;;;;;;;;;;5036220;28;20475;-54
2023/12/09 13:45:42;;;;;;;19.47;16.23;;;;;;;;;;5030793;28;20517;-56
2023/12/09 13:48:10;;;;;;;21.27;18.30;;;;;;;;;;5028614;28;20490;-55
2023/12/09 13:50:39;;;;;;;21.97;19.33;;;;;;;;;;5028929;28;20457;-56
2023/12/09 13:53:07;;;;;;;26.33;18.60;;;;;;;;;;5079725;22;20500;-55
2023/12/09 13:55:36;;;;;;;23.40;19.67;;;;;;;;;;5004866;28;20505;-55
2023/12/09 13:58:03;;;;;;;21.50;19.30;;;;;;;;;;5003713;28;20465;-54
2023/12/09 14:00:31;;;;;;;21.00;18.90;;;;;;;;;;4997495;28;20570;-54
2023/12/09 14:02:58;;;;;;;18.13;16.13;;;;;;;;;;4997663;28;20469;-54
2023/12/09 14:05:26;;;;;;;19.17;17.00;;;;;;;;;;4990109;28;20448;-56
2023/12/09 14:07:54;;;;;;;19.60;17.50;;;;;;;;;;4980881;28;20481;-56
2023/12/09 14:10:21;;;;;;;17.63;15.77;;;;;;;;;;4989899;28;20959;-57
2023/12/09 14:12:50;;;;;;;17.30;15.47;;;;;;;;;;4990352;28;20465;-54
2023/12/09 14:15:17;;;;;;;19.80;15.50;;;;;;;;;;4990050;28;20465;-56
2023/12/09 14:17:45;;;;;;;19.00;14.83;;;;;;;;;;4990868;28;20455;-55
2023/12/09 14:20:15;;;;;;;18.93;16.00;;;;;;;;;;4992275;28;20528;-54
2023/12/09 14:22:43;;;;;;;17.00;15.10;;;;;;;;;;4988242;28;20823;-55
2023/12/09 14:25:11;;;;;;;18.00;14.60;;;;;;;;;;4988717;28;20450;-53